Time;durP1;ratioP1;P1;durP2;ratioP2;P2;SDS_P1;SDS_P2;PMS_P1;PMS_P2;Temp;Humidity;BMP_temperature;BMP_pressure;BME280_temperature;BME280_humidity;BME280_pressure;Samples;Min_cycle;Max_cycle;Signal;HPM_P1;HPM_P2
2023/06/05 00:03:43;;;;;;;2.35;1.20;;;;;;;21.25;34.31;102082.84;16109370;19;129873;-40
2023/06/05 00:09:05;;;;;;;1.95;1.20;;;;;;;21.25;34.38;102084.81;16103753;19;130195;-40
2023/06/05 00:14:27;;;;;;;2.75;1.80;;;;;;;21.22;34.55;102086.97;16105362;19;131386;-43
2023/06/05 00:19:49;;;;;;;3.28;1.33;;;;;;;21.23;34.24;102079.50;16108357;19;129739;-40
2023/06/05 00:25:11;;;;;;;5.32;1.30;;;;;;;21.22;34.44;102084.19;16117883;19;129940;-42
2023/06/05 00:30:33;;;;;;;5.00;1.33;;;;;;;21.21;34.28;102076.91;16124468;19;129293;-41
2023/06/05 00:35:55;;;;;;;2.10;1.30;;;;;;;21.20;34.48;102077.16;16125107;19;129733;-40
2023/06/05 00:41:17;;;;;;;2.95;1.30;;;;;;;21.19;34.23;102075.47;16123066;19;134826;-40
2023/06/05 00:46:39;;;;;;;3.13;1.55;;;;;;;21.16;34.15;102074.03;16125446;19;130206;-40
2023/06/05 00:52:01;;;;;;;5.50;1.60;;;;;;;21.16;34.52;102068.44;16122282;19;129569;-40
2023/06/05 00:57:26;;;;;;;5.40;1.50;;;;;;;21.16;34.29;102079.59;16120463;19;130208;-41
2023/06/05 01:02:56;;;;;;;2.60;1.50;;;;;;;21.16;34.29;102076.81;16116506;19;129833;-40
2023/06/05 01:08:24;;;;;;;1.80;1.13;;;;;;;21.15;34.44;102077.00;16122076;19;129391;-40
2023/06/05 01:13:54;;;;;;;2.47;1.25;;;;;;;21.15;34.17;102077.88;16121069;19;129388;-40
2023/06/05 01:19:17;;;;;;;6.13;1.50;;;;;;;21.13;34.49;102068.03;16121069;19;130308;-41
2023/06/05 01:24:40;;;;;;;2.30;1.20;;;;;;;21.13;34.18;102070.84;16117436;19;129454;-42
2023/06/05 01:30:02;;;;;;;3.00;1.42;;;;;;;21.12;34.28;102058.88;16121059;19;129637;-41
2023/06/05 01:35:27;;;;;;;3.92;1.33;;;;;;;21.10;34.02;102062.97;16119982;19;130086;-41
2023/06/05 01:40:50;;;;;;;4.50;1.48;;;;;;;21.09;33.97;102062.13;16119738;19;129715;-40
2023/06/05 01:46:14;;;;;;;2.53;1.20;;;;;;;21.09;34.34;102055.72;16120273;19;130198;-40
2023/06/05 01:51:36;;;;;;;4.57;1.35;;;;;;;21.08;34.21;102054.00;16115716;19;129733;-43
2023/06/05 01:57:00;;;;;;;3.22;1.25;;;;;;;21.06;34.40;102048.66;16120839;19;130262;-40
2023/06/05 02:02:21;;;;;;;2.08;1.30;;;;;;;21.06;34.43;102051.44;16116853;19;129365;-40
2023/06/05 02:07:53;;;;;;;5.15;1.50;;;;;;;21.04;34.15;102053.66;16117640;19;129734;-41
2023/06/05 02:13:16;;;;;;;2.78;1.35;;;;;;;21.01;34.12;102041.03;16116778;19;130642;-40
2023/06/05 02:18:38;;;;;;;4.45;1.30;;;;;;;21.01;34.00;102038.25;16110942;19;131413;-42
2023/06/05 02:24:00;;;;;;;2.58;1.20;;;;;;;21.01;34.00;102037.41;16116805;19;130211;-46
2023/06/05 02:29:23;;;;;;;2.20;1.23;;;;;;;21.00;34.42;102038.50;16111566;19;130299;-42
2023/06/05 02:34:47;;;;;;;2.55;1.10;;;;;;;21.00;34.28;102041.28;16113777;19;129526;-41
2023/06/05 02:40:10;;;;;;;3.30;1.42;;;;;;;20.98;34.01;102043.44;16113570;19;131176;-41
2023/06/05 02:45:35;;;;;;;3.83;1.33;;;;;;;20.98;34.16;102043.44;16107860;19;133450;-42
2023/06/05 02:50:57;;;;;;;3.15;1.48;;;;;;;20.96;34.08;102040.03;16113735;19;132994;-40
2023/06/05 02:56:21;;;;;;;3.63;1.45;;;;;;;20.97;34.40;102047.31;16113205;19;129912;-41
2023/06/05 03:01:47;;;;;;;1.65;1.20;;;;;;;20.94;34.38;102033.84;16114690;19;129030;-41
2023/06/05 03:07:09;;;;;;;3.30;1.30;;;;;;;20.94;34.31;102039.41;16110042;19;130537;-43
2023/06/05 03:12:31;;;;;;;3.45;1.60;;;;;;;20.93;34.41;102029.38;16114318;19;129741;-40
2023/06/05 03:17:53;;;;;;;3.42;1.50;;;;;;;20.91;34.01;102026.84;16113506;19;129606;-41
2023/06/05 03:23:16;;;;;;;3.28;1.30;;;;;;;20.90;34.43;102019.56;16113386;19;129597;-40
2023/06/05 03:28:38;;;;;;;3.90;1.50;;;;;;;20.89;34.38;102024.31;16113222;19;129820;-42
2023/06/05 03:34:00;;;;;;;4.60;1.38;;;;;;;20.89;34.32;102029.00;16111578;19;129931;-42
2023/06/05 03:39:22;;;;;;;4.25;1.60;;;;;;;20.88;34.42;102030.94;16110325;19;130640;-44
2023/06/05 03:44:44;;;;;;;3.78;1.40;;;;;;;20.88;34.05;102027.31;16108160;19;130748;-40
2023/06/05 03:50:06;;;;;;;4.32;1.58;;;;;;;20.86;34.26;102024.75;16108741;19;129670;-41
2023/06/05 03:55:40;;;;;;;2.72;1.38;;;;;;;20.87;34.34;102029.25;16111197;19;129870;-41
2023/06/05 04:01:02;;;;;;;2.53;1.60;;;;;;;20.86;34.46;102027.53;16124678;19;130078;-41
2023/06/05 04:06:25;;;;;;;2.30;1.20;;;;;;;20.85;34.36;102028.63;16124078;19;130360;-40
2023/06/05 04:11:48;;;;;;;5.20;1.45;;;;;;;20.85;34.23;102036.13;16125360;19;129586;-43
2023/06/05 04:17:10;;;;;;;2.75;1.30;;;;;;;20.83;34.30;102036.34;16124821;19;129646;-41
2023/06/05 04:22:32;;;;;;;4.60;1.75;;;;;;;20.83;34.05;102035.53;16126967;19;129773;-40
2023/06/05 04:27:56;;;;;;;3.03;1.63;;;;;;;20.81;34.00;102032.94;16126635;19;129452;-41
2023/06/05 04:33:17;;;;;;;3.75;1.35;;;;;;;20.80;33.95;102036.81;16124538;19;130536;-40
2023/06/05 04:38:39;;;;;;;5.32;1.80;;;;;;;20.80;34.05;102038.75;16123860;19;130587;-40
2023/06/05 04:44:01;;;;;;;2.65;1.33;;;;;;;20.79;34.30;102046.28;16121874;19;130561;-39
2023/06/05 04:49:23;;;;;;;2.45;1.55;;;;;;;20.79;34.05;102042.63;16120619;19;129465;-40
2023/06/05 04:54:45;;;;;;;2.53;1.40;;;;;;;20.78;34.45;102047.34;16118602;19;131290;-41
2023/06/05 05:00:08;;;;;;;1.35;1.25;;;;;;;20.79;34.45;102048.19;16121850;19;130787;-44
2023/06/05 05:05:30;;;;;;;3.42;1.33;;;;;;;20.77;34.26;102042.88;16124053;19;130886;-42
2023/06/05 05:10:52;;;;;;;2.53;1.70;;;;;;;20.77;34.51;102042.88;16118732;19;129768;-41
2023/06/05 05:16:15;;;;;;;3.55;1.35;;;;;;;20.76;34.54;102052.28;16122350;19;130051;-39
2023/06/05 05:21:37;;;;;;;5.68;1.60;;;;;;;20.75;34.53;102045.00;16121916;19;135362;-40
2023/06/05 05:27:00;;;;;;;3.65;1.58;;;;;;;20.76;34.32;102041.16;16121033;19;129969;-40
2023/06/05 05:32:22;;;;;;;1.92;1.60;;;;;;;20.75;34.61;102040.31;16121628;19;130955;-41
2023/06/05 05:37:44;;;;;;;3.08;1.73;;;;;;;20.75;34.15;102039.44;16120703;19;129207;-41
2023/06/05 05:43:07;;;;;;;3.10;1.60;;;;;;;20.75;34.56;102045.00;16118113;19;129430;-39
2023/06/05 05:48:29;;;;;;;3.65;1.88;;;;;;;20.75;34.14;102053.34;16117826;19;131180;-40
2023/06/05 05:53:50;;;;;;;2.72;1.50;;;;;;;20.75;34.18;102050.56;16118169;19;130989;-40
2023/06/05 05:59:13;;;;;;;4.90;1.50;;;;;;;20.75;34.06;102056.13;16118523;19;131358;-42
2023/06/05 06:04:35;;;;;;;2.92;1.73;;;;;;;20.75;34.55;102059.78;16118700;19;128970;-40
2023/06/05 06:09:58;;;;;;;2.53;1.33;;;;;;;20.74;34.61;102052.47;16117312;19;130829;-39
2023/06/05 06:15:22;;;;;;;3.33;1.52;;;;;;;20.75;34.24;102061.69;16118522;19;130324;-40
2023/06/05 06:20:44;;;;;;;4.20;1.70;;;;;;;20.75;34.17;102062.56;16115267;19;129609;-42
2023/06/05 06:26:07;;;;;;;3.90;1.70;;;;;;;20.75;34.61;102061.69;16114128;19;130000;-40
2023/06/05 06:31:29;;;;;;;2.55;1.90;;;;;;;20.74;34.18;102062.75;16118421;19;129952;-41
2023/06/05 06:36:50;;;;;;;4.80;1.70;;;;;;;20.73;34.81;102075.84;16116819;19;129717;-40
2023/06/05 06:42:12;;;;;;;2.03;1.45;;;;;;;20.74;34.32;102082.22;16115262;19;130231;-41
2023/06/05 06:47:34;;;;;;;2.20;1.52;;;;;;;20.73;34.78;102091.66;16114454;19;132298;-44
2023/06/05 06:52:56;;;;;;;3.92;2.00;;;;;;;20.72;34.36;102087.16;16111363;19;131821;-41
2023/06/05 06:58:18;;;;;;;7.32;1.92;;;;;;;20.72;34.54;102078.81;16109068;19;130726;-40
2023/06/05 07:03:42;;;;;;;5.32;1.88;;;;;;;20.72;34.62;102078.81;16110052;19;129594;-41
2023/06/05 07:09:04;;;;;;;7.07;1.90;;;;;;;20.82;34.42;102078.31;16109909;19;129506;-42
2023/06/05 07:14:26;;;;;;;4.25;1.65;;;;;;;20.94;34.50;102083.94;16112436;19;129366;-42
2023/06/05 07:19:48;;;;;;;10.32;1.90;;;;;;;21.06;34.38;102088.47;16110757;19;129448;-46
2023/06/05 07:25:12;;;;;;;8.48;1.80;;;;;;;21.15;34.77;102090.94;16110076;19;129572;-45
2023/06/05 07:30:34;;;;;;;6.05;1.95;;;;;;;21.22;34.33;102089.75;16107365;19;129548;-42
2023/06/05 07:35:58;;;;;;;7.68;2.13;;;;;;;21.28;34.58;102092.69;16111981;19;132010;-44
2023/06/05 07:41:20;;;;;;;5.85;1.92;;;;;;;21.34;34.71;102100.09;16112078;19;131087;-43
2023/06/05 07:46:44;;;;;;;6.15;1.80;;;;;;;21.42;34.35;102094.16;16109348;19;129055;-40
2023/06/05 07:52:06;;;;;;;5.90;1.90;;;;;;;21.47;34.50;102091.53;16112834;19;129291;-40
2023/06/05 07:57:28;;;;;;;7.38;1.90;;;;;;;21.50;34.41;102091.09;16110651;19;130266;-41
2023/06/05 08:02:50;;;;;;;9.10;2.42;;;;;;;21.54;34.69;102093.41;16110965;19;129806;-44
2023/06/05 08:08:13;;;;;;;8.93;2.30;;;;;;;21.59;34.96;102093.53;16109121;19;131076;-42
2023/06/05 08:13:38;;;;;;;6.95;2.00;;;;;;;21.59;34.73;102082.41;16105772;19;130937;-42
2023/06/05 08:19:01;;;;;;;10.20;2.20;;;;;;;21.61;35.04;102080.22;16108554;19;130694;-45
2023/06/05 08:24:23;;;;;;;8.80;2.20;;;;;;;21.61;34.79;102080.22;16098809;19;129954;-45
2023/06/05 08:29:45;;;;;;;4.80;2.25;;;;;;;21.63;34.76;102072.50;16106316;19;129603;-42
2023/06/05 08:35:07;;;;;;;5.88;1.90;;;;;;;21.64;34.53;102074.19;16104625;19;130202;-46
2023/06/05 08:40:29;;;;;;;7.75;2.38;;;;;;;21.63;34.55;102066.91;16108351;19;129575;-44
2023/06/05 08:45:55;;;;;;;9.43;2.03;;;;;;;21.64;34.71;102065.84;16116473;19;129576;-40
2023/06/05 08:51:18;;;;;;;6.53;2.13;;;;;;;21.64;34.60;102065.84;16122985;19;129799;-43
2023/06/05 08:56:41;;;;;;;11.30;2.40;;;;;;;21.65;34.73;102056.41;16123950;19;130080;-47
2023/06/05 09:02:04;;;;;;;5.47;1.88;;;;;;;21.65;34.76;102048.03;16117722;19;130396;-45
2023/06/05 09:07:28;;;;;;;6.57;1.88;;;;;;;21.64;34.91;102049.97;16119146;19;130678;-46
2023/06/05 09:13:01;;;;;;;3.80;1.70;;;;;;;21.66;35.00;102055.31;16116839;19;130184;-43
2023/06/05 09:18:23;;;;;;;6.45;2.10;;;;;;;21.65;35.05;102048.03;16114159;19;131279;-41
2023/06/05 09:23:45;;;;;;;5.78;2.10;;;;;;;21.63;34.90;102050.22;16115064;19;130766;-44
2023/06/05 09:29:06;;;;;;;3.47;2.20;;;;;;;21.61;35.02;102055.16;16115792;19;130565;-44
2023/06/05 09:34:31;;;;;;;4.85;1.88;;;;;;;21.57;35.28;102052.00;16117322;19;129841;-44
2023/06/05 09:39:52;;;;;;;3.80;1.83;;;;;;;21.59;35.21;102043.41;16117610;19;130770;-42
2023/06/05 09:45:15;;;;;;;3.13;2.15;;;;;;;21.58;35.11;102047.28;16116809;19;129668;-45
2023/06/05 09:50:36;;;;;;;6.90;2.25;;;;;;;21.55;35.20;102042.19;16113649;19;129704;-45
2023/06/05 09:56:02;;;;;;;4.07;1.70;;;;;;;21.54;35.40;102035.78;16112921;19;129903;-44
2023/06/05 10:01:24;;;;;;;4.73;2.17;;;;;;;21.52;35.44;102041.59;16113399;19;129426;-44
2023/06/05 10:06:48;;;;;;;6.57;1.80;;;;;;;21.50;35.72;102032.63;16112257;19;129582;-46
2023/06/05 10:12:10;;;;;;;6.57;1.73;;;;;;;21.50;35.81;102028.97;16113848;19;128969;-43
2023/06/05 10:17:32;;;;;;;6.35;2.00;;;;;;;21.49;35.24;102027.28;16115835;19;130384;-43
2023/06/05 10:22:55;;;;;;;5.82;1.90;;;;;;;21.48;35.49;102029.19;16113051;19;131585;-43
2023/06/05 10:28:41;;;;;;;8.05;2.03;;;;;;;21.48;35.67;102020.84;16118401;19;129675;-41
2023/06/05 10:34:24;;;;;;;7.03;2.27;;;;;;;21.46;35.39;102023.03;16115999;19;130041;-44
2023/06/05 10:39:46;;;;;;;13.27;2.30;;;;;;;21.44;35.55;102022.41;16116171;19;129547;-42
2023/06/05 10:45:09;;;;;;;13.32;2.70;;;;;;;21.45;35.63;102020.47;16113089;19;130759;-43
2023/06/05 10:50:31;;;;;;;35.20;3.95;;;;;;;21.47;35.53;102026.66;16113186;19;129456;-41
2023/06/05 10:55:53;;;;;;;14.38;2.30;;;;;;;21.53;35.76;102014.59;16111471;19;130612;-44
2023/06/05 11:01:22;;;;;;;12.82;2.28;;;;;;;21.64;36.05;102016.53;16110769;19;131106;-43
2023/06/05 11:07:20;;;;;;;9.18;2.00;;;;;;;21.69;35.85;102012.19;16110561;19;129197;-41
2023/06/05 11:12:42;;;;;;;11.57;2.30;;;;;;;21.69;35.56;102007.47;16114371;19;129328;-46
2023/06/05 11:18:26;;;;;;;11.25;2.95;;;;;;;21.69;36.11;101993.53;16113876;19;130083;-37
2023/06/05 11:24:13;;;;;;;9.68;2.22;;;;;;;21.69;35.86;101987.13;16113240;19;129754;-38
2023/06/05 11:29:35;;;;;;;7.75;2.38;;;;;;;21.67;35.91;101987.34;16112135;19;129789;-46
2023/06/05 11:34:58;;;;;;;7.03;2.10;;;;;;;21.69;35.92;101981.56;16115735;19;134089;-46
2023/06/05 11:40:25;;;;;;;7.20;2.55;;;;;;;21.71;35.82;101973.81;16113520;19;131057;-42
2023/06/05 11:45:57;;;;;;;7.57;1.90;;;;;;;21.71;35.81;101960.72;16110768;19;129852;-39
2023/06/05 11:51:19;;;;;;;5.38;2.08;;;;;;;21.72;35.84;101975.50;16109031;19;130015;-39
2023/06/05 11:56:48;;;;;;;6.88;2.03;;;;;;;21.72;35.73;101970.78;16110138;19;129636;-41
2023/06/05 12:02:10;;;;;;;5.32;2.60;;;;;;;21.73;36.04;101972.47;16108920;19;129685;-46
2023/06/05 12:07:36;;;;;;;6.00;2.40;;;;;;;21.72;35.71;101959.63;16108237;19;129708;-42
2023/06/05 12:12:58;;;;;;;9.27;2.28;;;;;;;21.74;35.93;101956.59;16112919;19;129847;-53
2023/06/05 12:18:20;;;;;;;6.70;2.13;;;;;;;21.74;35.81;101956.59;16109822;19;129435;-44
2023/06/05 12:23:42;;;;;;;6.00;1.92;;;;;;;21.74;35.65;101946.31;16125314;19;131310;-45
2023/06/05 12:29:05;;;;;;;8.50;2.00;;;;;;;21.74;35.39;101951.91;16122096;19;130132;-42
2023/06/05 12:34:42;;;;;;;3.88;1.95;;;;;;;21.75;35.45;101931.31;16122893;19;131439;-42
2023/06/05 12:40:22;;;;;;;5.60;1.98;;;;;;;21.72;35.49;101931.78;16125305;19;129605;-43
2023/06/05 12:45:57;;;;;;;8.95;1.90;;;;;;;21.74;35.55;101928.75;16124711;19;135265;-42
2023/06/05 12:51:19;;;;;;;4.30;2.00;;;;;;;21.74;35.74;101924.03;16123372;19;129606;-40
2023/06/05 12:56:41;;;;;;;3.85;1.50;;;;;;;21.76;35.61;101924.66;16123596;19;129509;-45
2023/06/05 13:02:03;;;;;;;6.60;1.80;;;;;;;21.76;35.57;101910.72;16119266;19;129808;-42
2023/06/05 13:07:25;;;;;;;6.07;1.80;;;;;;;21.78;35.34;101913.25;16122602;19;131229;-42
2023/06/05 13:12:47;;;;;;;4.45;1.80;;;;;;;21.76;35.19;101899.59;16120451;19;129724;-42
2023/06/05 13:18:09;;;;;;;3.70;1.70;;;;;;;21.77;35.29;101901.28;16121254;19;129648;-40
2023/06/05 13:23:32;;;;;;;5.57;1.88;;;;;;;21.78;35.60;101900.19;16119942;19;131240;-43
2023/06/05 13:28:54;;;;;;;2.08;1.40;;;;;;;21.79;35.62;101890.72;16118336;19;129418;-42
2023/06/05 13:34:17;;;;;;;8.95;1.60;;;;;;;21.80;35.60;101892.41;16119450;19;130830;-41
2023/06/05 13:39:39;;;;;;;4.70;1.60;;;;;;;21.80;35.26;101886.84;16119696;19;129905;-44
2023/06/05 13:45:03;;;;;;;4.13;1.90;;;;;;;21.81;35.23;101873.78;16116879;19;129681;-46
2023/06/05 13:50:25;;;;;;;2.50;1.73;;;;;;;21.80;35.49;101878.47;16117512;19;129381;-41
2023/06/05 13:55:47;;;;;;;5.68;1.70;;;;;;;21.82;35.04;101872.69;16119393;19;129437;-40
2023/06/05 14:01:09;;;;;;;2.85;1.30;;;;;;;21.83;35.04;101864.06;16113506;19;129629;-39
2023/06/05 14:06:31;;;;;;;4.00;1.90;;;;;;;21.82;34.86;101854.03;16117306;19;129410;-41
2023/06/05 14:11:53;;;;;;;3.42;1.70;;;;;;;21.81;34.89;101866.25;16118976;19;130894;-41
2023/06/05 14:17:15;;;;;;;7.18;1.77;;;;;;;21.82;35.03;101865.16;16117079;19;129659;-40
2023/06/05 14:22:37;;;;;;;5.60;1.90;;;;;;;21.80;34.88;101861.78;16117973;19;130874;-41
2023/06/05 14:27:59;;;;;;;4.75;1.80;;;;;;;21.82;34.92;101853.19;16117281;19;130453;-43
2023/06/05 14:33:21;;;;;;;3.25;1.90;;;;;;;21.83;35.00;101844.56;16117627;19;129208;-41
2023/06/05 14:38:43;;;;;;;5.15;2.03;;;;;;;21.83;34.80;101844.56;16118946;19;129571;-40
2023/06/05 14:44:05;;;;;;;5.07;1.77;;;;;;;21.82;34.87;101842.03;16113637;19;129827;-44
2023/06/05 14:49:43;;;;;;;4.43;2.10;;;;;;;21.83;34.85;101843.75;16114005;19;129681;-39
2023/06/05 14:55:06;;;;;;;6.63;2.00;;;;;;;21.83;34.74;101839.00;16115233;19;129553;-40
2023/06/05 15:00:29;;;;;;;4.68;1.65;;;;;;;21.87;34.80;101841.31;16118192;19;130857;-43
2023/06/05 15:05:52;;;;;;;2.25;1.60;;;;;;;21.90;34.56;101835.25;16112997;19;129603;-39
2023/06/05 15:11:14;;;;;;;2.08;1.52;;;;;;;21.94;34.98;101830.84;16115739;19;129748;-39
2023/06/05 15:16:36;;;;;;;3.78;1.80;;;;;;;21.97;34.70;101824.78;16115312;19;129596;-39
2023/06/05 15:22:03;;;;;;;4.75;2.05;;;;;;;21.99;34.57;101828.19;16110876;19;130917;-39
2023/06/05 15:27:25;;;;;;;6.30;1.88;;;;;;;21.99;34.66;101819.81;16111899;19;130555;-40
2023/06/05 15:32:47;;;;;;;4.68;1.88;;;;;;;22.01;34.41;101822.34;16113230;19;129826;-39
2023/06/05 15:38:11;;;;;;;5.82;1.90;;;;;;;22.02;34.32;101824.91;16112584;19;129337;-41
2023/06/05 15:43:33;;;;;;;4.28;1.92;;;;;;;21.99;34.73;101811.47;16113297;19;131136;-38
2023/06/05 15:48:55;;;;;;;7.43;1.80;;;;;;;21.97;34.31;101816.44;16115286;19;129694;-39
2023/06/05 15:54:17;;;;;;;6.53;2.33;;;;;;;21.97;34.80;101816.44;16118878;19;130955;-39
2023/06/05 15:59:59;;;;;;;4.43;2.03;;;;;;;21.97;34.26;101822.84;16128506;19;129561;-40
2023/06/05 16:05:22;;;;;;;4.13;1.90;;;;;;;21.97;34.48;101814.47;16128063;19;129228;-39
2023/06/05 16:10:45;;;;;;;9.85;2.40;;;;;;;21.97;34.80;101816.44;16126053;19;129466;-39
2023/06/05 16:16:07;;;;;;;5.88;2.10;;;;;;;21.97;34.72;101797.75;16129733;19;129281;-39
2023/06/05 16:21:29;;;;;;;6.57;2.03;;;;;;;21.98;34.45;101801.41;16127526;19;130770;-39
2023/06/05 16:26:51;;;;;;;9.40;2.40;;;;;;;22.00;34.44;101799.22;16129873;19;129641;-39
2023/06/05 16:32:13;;;;;;;4.40;2.20;;;;;;;22.04;34.91;101794.00;16128161;19;129549;-39
2023/06/05 16:37:35;;;;;;;37.28;4.40;;;;;;;22.04;34.87;101794.84;16129123;19;129944;-39
2023/06/05 16:42:57;;;;;;;8.43;2.42;;;;;;;22.04;35.12;101794.84;16118407;19;130278;-42
2023/06/05 16:48:19;;;;;;;9.38;3.00;;;;;;;22.05;35.20;101796.53;16124345;19;129455;-40
2023/06/05 16:53:41;;;;;;;14.27;2.67;;;;;;;22.07;35.10;101799.09;16125233;19;129704;-39
2023/06/05 16:59:14;;;;;;;14.15;2.47;;;;;;;22.09;35.23;101785.75;16124139;19;130515;-39
2023/06/05 17:04:36;;;;;;;23.45;3.67;;;;;;;22.06;35.60;101787.06;16120853;19;129578;-39
2023/06/05 17:09:58;;;;;;;16.98;3.17;;;;;;;22.08;35.40;101784.88;16120481;19;129830;-42
2023/06/05 17:15:20;;;;;;;16.02;3.53;;;;;;;22.09;35.51;101803.31;16119570;19;130780;-43
2023/06/05 17:20:42;;;;;;;13.45;3.47;;;;;;;22.09;35.92;101797.72;16122300;19;130964;-38
2023/06/05 17:26:04;;;;;;;7.35;2.40;;;;;;;22.10;35.68;101796.63;16118301;19;130996;-39
2023/06/05 17:31:27;;;;;;;16.55;2.88;;;;;;;22.11;36.00;101794.69;16119846;19;128956;-38
2023/06/05 17:36:49;;;;;;;21.25;3.60;;;;;;;22.13;35.89;101804.50;16121362;19;130516;-39
2023/06/05 17:42:11;;;;;;;17.38;3.10;;;;;;;22.16;36.24;101805.09;16121363;19;130341;-40
2023/06/05 17:47:33;;;;;;;12.93;2.45;;;;;;;22.17;35.82;101804.00;16118754;19;131252;-39
2023/06/05 17:52:55;;;;;;;12.93;3.08;;;;;;;22.19;36.24;101808.25;16117861;19;131344;-40
2023/06/05 17:58:17;;;;;;;12.68;2.90;;;;;;;22.20;35.73;101804.34;16117436;19;131322;-40
2023/06/05 18:03:39;;;;;;;7.28;2.45;;;;;;;22.21;36.09;101805.22;16118028;19;129743;-39
2023/06/05 18:09:01;;;;;;;8.10;2.95;;;;;;;22.21;36.09;101806.09;16112372;19;130175;-39
2023/06/05 18:14:23;;;;;;;10.57;2.60;;;;;;;22.20;36.17;101809.06;16116518;19;130430;-39
2023/06/05 18:19:46;;;;;;;7.38;2.13;;;;;;;22.18;36.27;101817.69;16111539;19;130361;-41
2023/06/05 18:25:10;;;;;;;12.98;2.30;;;;;;;22.18;35.93;101811.25;16113464;19;129357;-40
2023/06/05 18:30:32;;;;;;;9.63;2.53;;;;;;;22.16;36.01;101817.09;16110955;19;134834;-40
2023/06/05 18:35:55;;;;;;;9.02;2.15;;;;;;;22.15;36.29;101822.94;16113160;19;129354;-40
2023/06/05 18:41:16;;;;;;;6.45;2.50;;;;;;;22.10;36.37;101821.72;16112577;19;130688;-39
2023/06/05 18:46:38;;;;;;;7.70;2.15;;;;;;;22.08;36.32;101820.28;16110554;19;130396;-40
2023/06/05 18:52:00;;;;;;;10.43;2.47;;;;;;;22.07;36.04;101833.34;16110244;19;130719;-39
2023/06/05 18:57:22;;;;;;;8.23;2.35;;;;;;;22.05;36.15;101829.97;16114272;19;130140;-39
2023/06/05 19:02:44;;;;;;;8.95;2.50;;;;;;;22.03;36.07;101831.31;16113029;19;130544;-39
2023/06/05 19:08:06;;;;;;;8.25;2.70;;;;;;;22.03;36.41;101842.47;16114676;19;129440;-40
2023/06/05 19:13:28;;;;;;;4.50;2.38;;;;;;;21.98;36.16;101838.47;16114901;19;130145;-41
2023/06/05 19:18:50;;;;;;;7.32;2.30;;;;;;;21.94;35.84;101840.06;16113810;19;129395;-39
2023/06/05 19:24:13;;;;;;;7.22;2.55;;;;;;;21.91;35.82;101843.34;16111668;19;133886;-39
2023/06/05 19:29:35;;;;;;;9.02;2.40;;;;;;;21.87;36.02;101841.31;16114669;19;129040;-39
2023/06/05 19:34:58;;;;;;;5.53;2.65;;;;;;;21.84;36.16;101839.88;16107524;19;129796;-40
2023/06/05 19:40:20;;;;;;;6.43;2.42;;;;;;;21.80;35.60;101845.06;16105763;19;131173;-39
2023/06/05 19:45:42;;;;;;;5.45;1.85;;;;;;;21.79;35.83;101845.31;16106082;19;131362;-39
2023/06/05 19:51:04;;;;;;;4.28;1.88;;;;;;;21.76;35.47;101849.44;16103345;19;130058;-39
2023/06/05 19:56:26;;;;;;;4.60;1.65;;;;;;;21.74;35.92;101857.19;16108639;19;129619;-39
2023/06/05 20:01:48;;;;;;;4.75;1.85;;;;;;;21.74;35.81;101862.78;16107273;19;129206;-41
2023/06/05 20:07:10;;;;;;;14.85;2.63;;;;;;;21.72;35.91;101861.31;16108862;19;130765;-49
2023/06/05 20:12:32;;;;;;;7.93;2.42;;;;;;;21.70;35.92;101872.69;16108651;19;134752;-38
2023/06/05 20:17:54;;;;;;;5.75;2.40;;;;;;;21.70;35.94;101881.03;16104308;19;130764;-39
2023/06/05 20:23:16;;;;;;;22.98;3.30;;;;;;;21.70;35.82;101894.97;16102466;19;130937;-38
2023/06/05 20:28:39;;;;;;;17.20;2.88;;;;;;;21.69;35.90;101882.13;16104129;19;130280;-38
2023/06/05 20:34:03;;;;;;;15.05;2.95;;;;;;;21.68;36.06;101891.56;16101880;19;130998;-38
2023/06/05 20:39:25;;;;;;;24.77;3.00;;;;;;;21.69;36.29;101898.84;16103063;19;130191;-44
2023/06/05 20:44:46;;;;;;;12.25;3.50;;;;;;;21.66;35.93;101900.19;16116310;19;129209;-43
2023/06/05 20:50:09;;;;;;;11.85;2.80;;;;;;;21.63;36.20;101905.41;16118204;19;130026;-42
2023/06/05 20:55:31;;;;;;;10.95;2.80;;;;;;;21.61;36.25;101902.00;16123875;19;130019;-41
2023/06/05 21:00:53;;;;;;;11.43;2.92;;;;;;;21.57;36.35;101904.44;16123284;19;130536;-45
2023/06/05 21:06:15;;;;;;;9.70;2.95;;;;;;;21.55;35.97;101902.97;16122910;19;129226;-45
2023/06/05 21:11:37;;;;;;;8.90;2.90;;;;;;;21.52;36.30;101905.16;16123414;19;129950;-41
2023/06/05 21:16:59;;;;;;;11.25;3.55;;;;;;;21.50;36.09;101914.84;16122187;19;129552;-41
2023/06/05 21:22:21;;;;;;;10.25;3.42;;;;;;;21.47;36.30;101912.53;16122997;19;129578;-44
2023/06/05 21:27:46;;;;;;;7.22;2.83;;;;;;;21.44;36.36;101916.63;16123138;19;131733;-43
2023/06/05 21:33:08;;;;;;;6.45;3.22;;;;;;;21.43;36.37;101920.50;16120824;19;129501;-47
2023/06/05 21:38:30;;;;;;;6.60;3.40;;;;;;;21.40;36.11;101918.22;16119792;19;129217;-43
2023/06/05 21:43:52;;;;;;;10.02;3.13;;;;;;;21.39;36.36;101926.78;16123444;19;130301;-41
2023/06/05 21:49:15;;;;;;;8.48;3.38;;;;;;;21.36;36.48;101916.97;16120902;19;129629;-43
2023/06/05 21:54:38;;;;;;;8.70;3.30;;;;;;;21.34;36.61;101919.16;16121285;19;129327;-43
2023/06/05 22:00:00;;;;;;;5.05;3.35;;;;;;;21.33;36.15;101917.47;16122095;19;129856;-46
2023/06/05 22:05:22;;;;;;;6.60;3.22;;;;;;;21.31;36.41;101914.06;16119647;19;129570;-45
2023/06/05 22:10:44;;;;;;;6.63;3.10;;;;;;;21.29;36.44;101917.09;16118582;19;129649;-48
2023/06/05 22:16:06;;;;;;;4.55;2.78;;;;;;;21.29;36.28;101931.00;16120934;19;129465;-44
2023/06/05 22:21:31;;;;;;;8.10;3.28;;;;;;;21.26;36.74;101923.13;16117011;19;129420;-43
2023/06/05 22:26:52;;;;;;;5.50;3.30;;;;;;;21.26;36.74;101927.88;16120323;19;129864;-43
2023/06/05 22:32:15;;;;;;;7.53;3.20;;;;;;;21.25;36.41;101942.88;16119364;19;130577;-43
2023/06/05 22:37:38;;;;;;;4.22;2.92;;;;;;;21.22;36.67;101931.13;16117142;19;129666;-44
2023/06/05 22:43:00;;;;;;;6.82;3.60;;;;;;;21.20;36.62;101941.66;16115342;19;131005;-43
2023/06/05 22:48:22;;;;;;;7.45;3.55;;;;;;;21.18;36.79;101932.69;16114567;19;130112;-44
2023/06/05 22:53:45;;;;;;;4.90;3.50;;;;;;;21.18;36.84;101932.69;16116318;19;130471;-43
2023/06/05 22:59:07;;;;;;;6.22;3.30;;;;;;;21.17;36.75;101942.13;16116370;19;129655;-45
2023/06/05 23:04:32;;;;;;;4.95;3.00;;;;;;;21.17;36.34;101944.06;16116343;19;129299;-43
2023/06/05 23:09:55;;;;;;;6.95;2.88;;;;;;;21.15;36.79;101951.78;16116264;19;131192;-44
2023/06/05 23:15:18;;;;;;;4.88;3.33;;;;;;;21.13;36.64;101943.69;16116697;19;130200;-43
2023/06/05 23:20:41;;;;;;;5.47;3.28;;;;;;;21.12;36.50;101943.91;16113565;19;129908;-44
2023/06/05 23:26:02;;;;;;;4.88;3.20;;;;;;;21.11;36.65;101948.66;16114280;19;129559;-46
2023/06/05 23:31:24;;;;;;;5.00;3.50;;;;;;;21.10;36.67;101946.13;16114133;19;129347;-44
2023/06/05 23:36:48;;;;;;;6.53;2.78;;;;;;;21.09;36.85;101950.81;16112200;19;129780;-44
2023/06/05 23:42:11;;;;;;;5.18;3.10;;;;;;;21.07;36.45;101941.84;16109096;19;129438;-47
2023/06/05 23:47:33;;;;;;;5.20;3.35;;;;;;;21.07;36.84;101947.41;16112864;19;132547;-42
2023/06/05 23:52:55;;;;;;;4.97;3.30;;;;;;;21.05;36.78;101942.09;16113190;19;131457;-43
2023/06/05 23:58:17;;;;;;;4.95;3.22;;;;;;;21.03;36.60;101938.72;16114746;19;133855;-43
